KOGB

Orangeburg Municipal Airport

Orangeburg, South Carolina, USA
METAR KOGB 231053Z AUTO 24006KT 7SM OVC003 22/21 A3010 RMK AO2 CIG 002V008 SLP189 T02220211
Observed Flight Rules
May-23 @ 10:53 UTC (16 minutes ago) Instrument Flight Rules
Wind Visibility Clouds
240° at 6 knots 7 miles
  • Overcast at 300' AGL
Temperatures Readings
Current 22°C / 72°F
Dewpoint 21°C / 70°F
Humidity 94%
Altimeter 30.1" Hg
Pressure 1018.9 hPa
Elevation 59
METAR KOGB 231053Z AUTO 24006KT 7SM OVC003 22/21 A3010 RMK AO2 CIG 002V008 SLP189 T02220211
Observed Flight Rules
May-23 @ 10:53 UTC
(16 minutes ago)
LIFR
Wind Visibility
240° at 6 knots 7 miles
Clouds
  • Overcast at 300' AGL
Temperature Dewpoint
22°C / 72°F 21°C / 70°F
Humidity Altimeter Pressure
94% 30.1" Hg 1018.9 hPa